Terminal Aerodrome Forecast
Issued by NWS Mt. Holly, NJ

Home | Current Version | Previous Version | Text Only | Print | Product List | Glossary On
Versions: 1 2 3 4 5 6 7 8 9 10 11 12 13 14 15 16 17 18 19 20 21 22
000
FTUS41 KPHI 252000 AAA
TAFTTN
TAF AMD
KTTN 252010Z 2520/2618 27008KT P6SM BKN250
     FM252300 33004KT P6SM BKN200
     FM260600 36004KT P6SM OVC080
     FM261000 02012KT 6SM -RA OVC040
     FM261500 05014KT 2SM RASN BR OVC007=

USA.gov is the U.S. government's official web portal to all federal, state and local government web resources and services.